sensor_id;sensor_type;location;lat;lon;timestamp;temperature;humidity
27647;DHT22;42229;51.230;6.240;2023-06-14T00:02:10;19.80;41.10
27647;DHT22;42229;51.230;6.240;2023-06-14T00:04:36;19.70;40.80
27647;DHT22;42229;51.230;6.240;2023-06-14T00:07:03;19.70;40.80
27647;DHT22;42229;51.230;6.240;2023-06-14T00:09:30;19.70;40.80
27647;DHT22;42229;51.230;6.240;2023-06-14T00:11:56;19.60;40.80
27647;DHT22;42229;51.230;6.240;2023-06-14T00:14:22;19.60;40.80
27647;DHT22;42229;51.230;6.240;2023-06-14T00:16:48;19.50;40.90
27647;DHT22;42229;51.230;6.240;2023-06-14T00:19:15;19.50;41.00
27647;DHT22;42229;51.230;6.240;2023-06-14T00:21:41;19.50;41.10
27647;DHT22;42229;51.230;6.240;2023-06-14T00:24:09;19.50;41.00
27647;DHT22;42229;51.230;6.240;2023-06-14T00:26:35;19.50;41.20
27647;DHT22;42229;51.230;6.240;2023-06-14T00:29:01;19.40;41.10
27647;DHT22;42229;51.230;6.240;2023-06-14T00:31:27;19.40;41.40
27647;DHT22;42229;51.230;6.240;2023-06-14T00:33:54;19.30;42.10
27647;DHT22;42229;51.230;6.240;2023-06-14T00:36:20;19.30;41.60
27647;DHT22;42229;51.230;6.240;2023-06-14T00:38:46;19.30;41.60
27647;DHT22;42229;51.230;6.240;2023-06-14T00:41:12;19.30;41.60
27647;DHT22;42229;51.230;6.240;2023-06-14T00:43:39;19.20;41.70
27647;DHT22;42229;51.230;6.240;2023-06-14T00:46:05;19.20;41.90
27647;DHT22;42229;51.230;6.240;2023-06-14T00:48:31;19.20;41.90
27647;DHT22;42229;51.230;6.240;2023-06-14T00:50:59;19.10;42.10
27647;DHT22;42229;51.230;6.240;2023-06-14T00:53:30;19.10;41.90
27647;DHT22;42229;51.230;6.240;2023-06-14T00:55:57;19.00;42.20
27647;DHT22;42229;51.230;6.240;2023-06-14T00:58:24;19.00;42.20
27647;DHT22;42229;51.230;6.240;2023-06-14T01:00:50;19.00;42.10
27647;DHT22;42229;51.230;6.240;2023-06-14T01:03:17;18.90;42.00
27647;DHT22;42229;51.230;6.240;2023-06-14T01:05:49;18.90;42.10
27647;DHT22;42229;51.230;6.240;2023-06-14T01:08:52;18.90;42.40
27647;DHT22;42229;51.230;6.240;2023-06-14T01:11:17;18.90;42.40
27647;DHT22;42229;51.230;6.240;2023-06-14T01:13:47;18.80;42.50
27647;DHT22;42229;51.230;6.240;2023-06-14T01:16:14;18.80;42.50
27647;DHT22;42229;51.230;6.240;2023-06-14T01:18:41;18.70;42.50
27647;DHT22;42229;51.230;6.240;2023-06-14T01:21:19;18.70;42.60
27647;DHT22;42229;51.230;6.240;2023-06-14T01:23:48;18.70;42.60
27647;DHT22;42229;51.230;6.240;2023-06-14T01:26:19;18.60;42.80
27647;DHT22;42229;51.230;6.240;2023-06-14T01:28:46;18.60;43.30
27647;DHT22;42229;51.230;6.240;2023-06-14T01:31:19;18.60;42.80
27647;DHT22;42229;51.230;6.240;2023-06-14T01:33:50;18.50;42.70
27647;DHT22;42229;51.230;6.240;2023-06-14T01:36:18;18.50;42.90
27647;DHT22;42229;51.230;6.240;2023-06-14T01:38:45;18.40;42.80
27647;DHT22;42229;51.230;6.240;2023-06-14T01:41:12;18.40;42.90
27647;DHT22;42229;51.230;6.240;2023-06-14T01:43:39;18.40;43.10
27647;DHT22;42229;51.230;6.240;2023-06-14T01:46:06;18.30;43.00
27647;DHT22;42229;51.230;6.240;2023-06-14T01:48:32;18.30;43.20
27647;DHT22;42229;51.230;6.240;2023-06-14T01:50:58;18.30;43.40
27647;DHT22;42229;51.230;6.240;2023-06-14T01:53:26;18.20;43.20
27647;DHT22;42229;51.230;6.240;2023-06-14T01:55:52;18.10;43.30
27647;DHT22;42229;51.230;6.240;2023-06-14T01:58:20;18.10;43.20
27647;DHT22;42229;51.230;6.240;2023-06-14T02:00:47;18.10;43.30
27647;DHT22;42229;51.230;6.240;2023-06-14T02:03:13;18.00;43.40
27647;DHT22;42229;51.230;6.240;2023-06-14T02:05:39;18.00;43.50
27647;DHT22;42229;51.230;6.240;2023-06-14T02:08:06;18.00;43.60
27647;DHT22;42229;51.230;6.240;2023-06-14T02:10:33;17.90;43.60
27647;DHT22;42229;51.230;6.240;2023-06-14T02:12:59;17.90;43.60
27647;DHT22;42229;51.230;6.240;2023-06-14T02:15:26;17.80;43.70
27647;DHT22;42229;51.230;6.240;2023-06-14T02:17:53;17.80;43.80
27647;DHT22;42229;51.230;6.240;2023-06-14T02:20:19;17.70;43.60
27647;DHT22;42229;51.230;6.240;2023-06-14T02:22:46;17.70;43.80
27647;DHT22;42229;51.230;6.240;2023-06-14T02:25:12;17.70;43.90
27647;DHT22;42229;51.230;6.240;2023-06-14T02:27:40;17.60;44.20
27647;DHT22;42229;51.230;6.240;2023-06-14T02:30:07;17.60;44.30
27647;DHT22;42229;51.230;6.240;2023-06-14T02:32:33;17.60;44.90
27647;DHT22;42229;51.230;6.240;2023-06-14T02:35:02;17.60;44.50
27647;DHT22;42229;51.230;6.240;2023-06-14T02:37:29;17.60;44.50
27647;DHT22;42229;51.230;6.240;2023-06-14T02:39:55;17.60;44.50
27647;DHT22;42229;51.230;6.240;2023-06-14T02:42:23;17.50;44.50
27647;DHT22;42229;51.230;6.240;2023-06-14T02:44:49;17.50;44.60
27647;DHT22;42229;51.230;6.240;2023-06-14T02:47:17;17.50;44.60
27647;DHT22;42229;51.230;6.240;2023-06-14T02:49:44;17.40;44.50
27647;DHT22;42229;51.230;6.240;2023-06-14T02:52:14;17.40;44.60
27647;DHT22;42229;51.230;6.240;2023-06-14T02:54:40;17.40;45.00
27647;DHT22;42229;51.230;6.240;2023-06-14T02:57:08;17.40;44.90
27647;DHT22;42229;51.230;6.240;2023-06-14T02:59:35;17.30;44.90
27647;DHT22;42229;51.230;6.240;2023-06-14T03:02:03;17.30;44.80
27647;DHT22;42229;51.230;6.240;2023-06-14T03:04:31;17.30;44.70
27647;DHT22;42229;51.230;6.240;2023-06-14T03:07:06;17.30;44.90
27647;DHT22;42229;51.230;6.240;2023-06-14T03:09:36;17.30;45.20
27647;DHT22;42229;51.230;6.240;2023-06-14T03:12:04;17.20;45.20
27647;DHT22;42229;51.230;6.240;2023-06-14T03:14:32;17.20;45.40
27647;DHT22;42229;51.230;6.240;2023-06-14T03:16:59;17.20;45.30
27647;DHT22;42229;51.230;6.240;2023-06-14T03:19:28;17.10;45.30
27647;DHT22;42229;51.230;6.240;2023-06-14T03:21:55;17.10;45.20
27647;DHT22;42229;51.230;6.240;2023-06-14T03:24:24;17.10;45.40
27647;DHT22;42229;51.230;6.240;2023-06-14T03:26:54;17.00;45.50
27647;DHT22;42229;51.230;6.240;2023-06-14T03:29:21;17.00;46.10
27647;DHT22;42229;51.230;6.240;2023-06-14T03:32:00;17.00;45.60
27647;DHT22;42229;51.230;6.240;2023-06-14T03:34:35;16.90;46.10
27647;DHT22;42229;51.230;6.240;2023-06-14T03:37:04;16.90;45.60
27647;DHT22;42229;51.230;6.240;2023-06-14T03:39:31;16.90;45.80
27647;DHT22;42229;51.230;6.240;2023-06-14T03:41:57;16.90;45.80
27647;DHT22;42229;51.230;6.240;2023-06-14T03:44:26;16.80;45.70
27647;DHT22;42229;51.230;6.240;2023-06-14T03:46:52;16.80;45.90
27647;DHT22;42229;51.230;6.240;2023-06-14T03:49:19;16.80;46.00
27647;DHT22;42229;51.230;6.240;2023-06-14T03:51:46;16.80;46.00
27647;DHT22;42229;51.230;6.240;2023-06-14T03:54:20;16.70;46.00
27647;DHT22;42229;51.230;6.240;2023-06-14T03:56:49;16.70;46.10
27647;DHT22;42229;51.230;6.240;2023-06-14T03:59:15;16.70;46.30
27647;DHT22;42229;51.230;6.240;2023-06-14T04:01:42;16.60;46.30
27647;DHT22;42229;51.230;6.240;2023-06-14T04:04:10;16.70;46.30
27647;DHT22;42229;51.230;6.240;2023-06-14T04:06:37;16.60;46.40
27647;DHT22;42229;51.230;6.240;2023-06-14T04:09:05;16.60;46.40
27647;DHT22;42229;51.230;6.240;2023-06-14T04:11:31;16.60;46.50
27647;DHT22;42229;51.230;6.240;2023-06-14T04:13:58;16.60;46.60
27647;DHT22;42229;51.230;6.240;2023-06-14T04:16:26;16.60;46.60
27647;DHT22;42229;51.230;6.240;2023-06-14T04:18:53;16.60;46.80
27647;DHT22;42229;51.230;6.240;2023-06-14T04:21:21;16.60;46.90
27647;DHT22;42229;51.230;6.240;2023-06-14T04:23:51;16.60;47.00
27647;DHT22;42229;51.230;6.240;2023-06-14T04:26:20;16.70;47.00
27647;DHT22;42229;51.230;6.240;2023-06-14T04:28:49;16.70;47.10
27647;DHT22;42229;51.230;6.240;2023-06-14T04:31:17;16.70;47.00
27647;DHT22;42229;51.230;6.240;2023-06-14T04:33:44;16.80;47.20
27647;DHT22;42229;51.230;6.240;2023-06-14T04:36:16;16.70;47.30
27647;DHT22;42229;51.230;6.240;2023-06-14T04:38:43;16.70;47.30
27647;DHT22;42229;51.230;6.240;2023-06-14T04:41:12;16.80;47.30
27647;DHT22;42229;51.230;6.240;2023-06-14T04:43:39;16.80;47.30
27647;DHT22;42229;51.230;6.240;2023-06-14T04:46:06;16.80;47.40
27647;DHT22;42229;51.230;6.240;2023-06-14T04:48:38;16.80;47.60
27647;DHT22;42229;51.230;6.240;2023-06-14T04:51:07;16.90;47.50
27647;DHT22;42229;51.230;6.240;2023-06-14T04:53:33;16.90;48.00
27647;DHT22;42229;51.230;6.240;2023-06-14T04:56:00;16.90;48.20
27647;DHT22;42229;51.230;6.240;2023-06-14T04:58:27;17.00;48.80
27647;DHT22;42229;51.230;6.240;2023-06-14T05:00:55;17.00;48.10
27647;DHT22;42229;51.230;6.240;2023-06-14T05:03:22;17.10;48.10
27647;DHT22;42229;51.230;6.240;2023-06-14T05:05:50;17.20;48.40
27647;DHT22;42229;51.230;6.240;2023-06-14T05:08:17;17.20;48.90
27647;DHT22;42229;51.230;6.240;2023-06-14T05:10:43;17.30;48.40
27647;DHT22;42229;51.230;6.240;2023-06-14T05:13:09;17.40;48.80
27647;DHT22;42229;51.230;6.240;2023-06-14T05:15:37;17.50;48.90
27647;DHT22;42229;51.230;6.240;2023-06-14T05:18:03;17.60;49.80
27647;DHT22;42229;51.230;6.240;2023-06-14T05:20:29;17.60;48.70
27647;DHT22;42229;51.230;6.240;2023-06-14T05:22:56;17.70;48.90
27647;DHT22;42229;51.230;6.240;2023-06-14T05:25:22;17.80;49.40
27647;DHT22;42229;51.230;6.240;2023-06-14T05:27:48;17.90;49.40
27647;DHT22;42229;51.230;6.240;2023-06-14T05:30:15;18.00;49.70
27647;DHT22;42229;51.230;6.240;2023-06-14T05:32:41;18.10;49.80
27647;DHT22;42229;51.230;6.240;2023-06-14T05:35:07;18.20;49.10
27647;DHT22;42229;51.230;6.240;2023-06-14T05:37:34;18.30;49.50
27647;DHT22;42229;51.230;6.240;2023-06-14T05:40:00;18.40;49.70
27647;DHT22;42229;51.230;6.240;2023-06-14T05:42:26;18.50;49.20
27647;DHT22;42229;51.230;6.240;2023-06-14T05:44:53;18.60;49.60
27647;DHT22;42229;51.230;6.240;2023-06-14T05:47:19;18.70;49.40
27647;DHT22;42229;51.230;6.240;2023-06-14T05:49:45;18.80;49.80
27647;DHT22;42229;51.230;6.240;2023-06-14T05:52:11;18.90;50.80
27647;DHT22;42229;51.230;6.240;2023-06-14T05:54:38;19.00;50.10
27647;DHT22;42229;51.230;6.240;2023-06-14T05:57:05;19.10;50.20
27647;DHT22;42229;51.230;6.240;2023-06-14T05:59:32;19.20;50.50
27647;DHT22;42229;51.230;6.240;2023-06-14T06:01:58;19.30;50.30
27647;DHT22;42229;51.230;6.240;2023-06-14T06:04:24;19.40;50.80
27647;DHT22;42229;51.230;6.240;2023-06-14T06:06:51;19.50;50.30
27647;DHT22;42229;51.230;6.240;2023-06-14T06:09:17;19.60;50.40
27647;DHT22;42229;51.230;6.240;2023-06-14T06:11:44;19.70;51.00
27647;DHT22;42229;51.230;6.240;2023-06-14T06:14:11;19.80;50.30
27647;DHT22;42229;51.230;6.240;2023-06-14T06:16:37;19.90;50.30
27647;DHT22;42229;51.230;6.240;2023-06-14T06:19:03;20.10;51.70
27647;DHT22;42229;51.230;6.240;2023-06-14T06:21:29;20.10;51.70
27647;DHT22;42229;51.230;6.240;2023-06-14T06:23:56;20.20;51.10
27647;DHT22;42229;51.230;6.240;2023-06-14T06:26:22;20.30;51.30
27647;DHT22;42229;51.230;6.240;2023-06-14T06:28:48;20.40;51.00
27647;DHT22;42229;51.230;6.240;2023-06-14T06:31:14;20.50;50.50
27647;DHT22;42229;51.230;6.240;2023-06-14T06:33:41;20.50;50.60
27647;DHT22;42229;51.230;6.240;2023-06-14T06:36:07;20.60;50.50
27647;DHT22;42229;51.230;6.240;2023-06-14T06:38:33;20.80;50.20
27647;DHT22;42229;51.230;6.240;2023-06-14T06:40:59;20.80;51.00
27647;DHT22;42229;51.230;6.240;2023-06-14T06:43:25;20.90;50.40
27647;DHT22;42229;51.230;6.240;2023-06-14T06:45:52;21.00;52.50
27647;DHT22;42229;51.230;6.240;2023-06-14T06:48:18;21.10;50.70
27647;DHT22;42229;51.230;6.240;2023-06-14T06:50:44;21.10;50.80
27647;DHT22;42229;51.230;6.240;2023-06-14T06:53:11;21.20;51.30
27647;DHT22;42229;51.230;6.240;2023-06-14T06:55:37;21.30;50.60
27647;DHT22;42229;51.230;6.240;2023-06-14T06:58:03;21.40;50.80
27647;DHT22;42229;51.230;6.240;2023-06-14T07:00:31;21.50;51.30
27647;DHT22;42229;51.230;6.240;2023-06-14T07:02:57;21.60;51.30
27647;DHT22;42229;51.230;6.240;2023-06-14T07:05:23;21.70;50.80
27647;DHT22;42229;51.230;6.240;2023-06-14T07:07:50;21.80;50.90
27647;DHT22;42229;51.230;6.240;2023-06-14T07:10:16;21.90;50.90
27647;DHT22;42229;51.230;6.240;2023-06-14T07:12:42;22.00;50.50
27647;DHT22;42229;51.230;6.240;2023-06-14T07:15:08;22.10;50.50
27647;DHT22;42229;51.230;6.240;2023-06-14T07:17:35;22.20;51.10
27647;DHT22;42229;51.230;6.240;2023-06-14T07:20:02;22.30;50.80
27647;DHT22;42229;51.230;6.240;2023-06-14T07:22:38;22.30;50.80
27647;DHT22;42229;51.230;6.240;2023-06-14T07:25:07;22.40;50.70
27647;DHT22;42229;51.230;6.240;2023-06-14T07:27:43;22.50;50.50
27647;DHT22;42229;51.230;6.240;2023-06-14T07:30:10;22.50;50.80
27647;DHT22;42229;51.230;6.240;2023-06-14T07:32:37;22.60;51.40
27647;DHT22;42229;51.230;6.240;2023-06-14T07:35:04;22.70;51.60
27647;DHT22;42229;51.230;6.240;2023-06-14T07:37:30;22.80;50.80
27647;DHT22;42229;51.230;6.240;2023-06-14T07:39:56;22.90;50.70
27647;DHT22;42229;51.230;6.240;2023-06-14T07:42:23;22.90;50.80
27647;DHT22;42229;51.230;6.240;2023-06-14T07:44:49;23.00;50.60
27647;DHT22;42229;51.230;6.240;2023-06-14T07:47:16;23.10;50.60
27647;DHT22;42229;51.230;6.240;2023-06-14T07:49:42;23.20;50.70
27647;DHT22;42229;51.230;6.240;2023-06-14T07:52:09;23.30;50.50
27647;DHT22;42229;51.230;6.240;2023-06-14T07:54:36;23.40;50.70
27647;DHT22;42229;51.230;6.240;2023-06-14T07:57:02;23.50;50.70
27647;DHT22;42229;51.230;6.240;2023-06-14T07:59:29;23.60;50.70
27647;DHT22;42229;51.230;6.240;2023-06-14T08:01:55;23.80;51.10
27647;DHT22;42229;51.230;6.240;2023-06-14T08:04:21;23.90;50.70
27647;DHT22;42229;51.230;6.240;2023-06-14T08:06:47;23.90;50.70
27647;DHT22;42229;51.230;6.240;2023-06-14T08:09:14;24.00;50.70
27647;DHT22;42229;51.230;6.240;2023-06-14T08:11:40;24.20;51.20
27647;DHT22;42229;51.230;6.240;2023-06-14T08:14:06;24.30;50.90
27647;DHT22;42229;51.230;6.240;2023-06-14T08:16:32;24.40;50.60
27647;DHT22;42229;51.230;6.240;2023-06-14T08:18:59;24.50;50.60
27647;DHT22;42229;51.230;6.240;2023-06-14T08:21:25;24.70;50.50
27647;DHT22;42229;51.230;6.240;2023-06-14T08:23:55;24.80;50.40
27647;DHT22;42229;51.230;6.240;2023-06-14T08:26:21;24.90;50.10
27647;DHT22;42229;51.230;6.240;2023-06-14T08:28:48;24.90;49.90
27647;DHT22;42229;51.230;6.240;2023-06-14T08:31:14;25.00;49.70
27647;DHT22;42229;51.230;6.240;2023-06-14T08:33:40;25.10;49.60
27647;DHT22;42229;51.230;6.240;2023-06-14T08:36:09;25.20;50.00
27647;DHT22;42229;51.230;6.240;2023-06-14T08:38:36;25.30;49.60
27647;DHT22;42229;51.230;6.240;2023-06-14T08:41:03;25.30;49.40
27647;DHT22;42229;51.230;6.240;2023-06-14T08:43:32;25.40;49.00
27647;DHT22;42229;51.230;6.240;2023-06-14T08:46:00;25.50;48.70
27647;DHT22;42229;51.230;6.240;2023-06-14T08:48:27;25.50;48.30
27647;DHT22;42229;51.230;6.240;2023-06-14T08:50:56;25.60;47.90
27647;DHT22;42229;51.230;6.240;2023-06-14T08:53:28;25.60;48.40
27647;DHT22;42229;51.230;6.240;2023-06-14T08:55:58;25.70;49.30
27647;DHT22;42229;51.230;6.240;2023-06-14T08:58:28;25.70;48.60
27647;DHT22;42229;51.230;6.240;2023-06-14T09:00:57;25.80;49.20
27647;DHT22;42229;51.230;6.240;2023-06-14T09:03:24;25.90;48.40
27647;DHT22;42229;51.230;6.240;2023-06-14T09:05:58;26.00;48.50
27647;DHT22;42229;51.230;6.240;2023-06-14T09:08:25;26.10;47.50
27647;DHT22;42229;51.230;6.240;2023-06-14T09:10:52;26.10;48.20
27647;DHT22;42229;51.230;6.240;2023-06-14T09:13:18;26.20;47.80
27647;DHT22;42229;51.230;6.240;2023-06-14T09:15:44;26.30;48.20
27647;DHT22;42229;51.230;6.240;2023-06-14T09:18:11;26.30;48.00
27647;DHT22;42229;51.230;6.240;2023-06-14T09:20:37;26.40;46.70
27647;DHT22;42229;51.230;6.240;2023-06-14T09:23:03;26.50;46.50
27647;DHT22;42229;51.230;6.240;2023-06-14T09:25:31;26.60;47.60
27647;DHT22;42229;51.230;6.240;2023-06-14T09:27:57;26.60;47.60
27647;DHT22;42229;51.230;6.240;2023-06-14T09:30:23;26.60;47.30
27647;DHT22;42229;51.230;6.240;2023-06-14T09:32:49;26.60;47.30
27647;DHT22;42229;51.230;6.240;2023-06-14T09:35:17;26.60;47.00
27647;DHT22;42229;51.230;6.240;2023-06-14T09:37:43;26.70;47.50
27647;DHT22;42229;51.230;6.240;2023-06-14T09:40:10;26.70;47.90
27647;DHT22;42229;51.230;6.240;2023-06-14T09:42:37;26.70;47.50
27647;DHT22;42229;51.230;6.240;2023-06-14T09:45:04;26.70;46.90
27647;DHT22;42229;51.230;6.240;2023-06-14T09:47:30;26.80;47.30
27647;DHT22;42229;51.230;6.240;2023-06-14T09:49:56;26.80;47.20
27647;DHT22;42229;51.230;6.240;2023-06-14T09:52:23;26.80;46.40
27647;DHT22;42229;51.230;6.240;2023-06-14T09:54:49;26.90;46.90
27647;DHT22;42229;51.230;6.240;2023-06-14T09:57:16;26.90;46.80
27647;DHT22;42229;51.230;6.240;2023-06-14T09:59:44;26.90;46.90
27647;DHT22;42229;51.230;6.240;2023-06-14T10:04:56;27.00;46.70
27647;DHT22;42229;51.230;6.240;2023-06-14T10:07:26;27.00;47.30
27647;DHT22;42229;51.230;6.240;2023-06-14T10:09:56;27.10;46.90
27647;DHT22;42229;51.230;6.240;2023-06-14T10:12:22;27.10;47.30
27647;DHT22;42229;51.230;6.240;2023-06-14T10:14:49;27.20;47.20
27647;DHT22;42229;51.230;6.240;2023-06-14T10:18:06;27.20;46.80
27647;DHT22;42229;51.230;6.240;2023-06-14T10:20:14;27.20;46.90
27647;DHT22;42229;51.230;6.240;2023-06-14T10:22:56;27.20;47.00
27647;DHT22;42229;51.230;6.240;2023-06-14T10:25:26;27.20;46.90
27647;DHT22;42229;51.230;6.240;2023-06-14T10:28:07;27.30;46.90
27647;DHT22;42229;51.230;6.240;2023-06-14T10:31:01;27.30;47.10
27647;DHT22;42229;51.230;6.240;2023-06-14T10:33:30;27.30;47.40
27647;DHT22;42229;51.230;6.240;2023-06-14T10:36:06;27.40;47.70
27647;DHT22;42229;51.230;6.240;2023-06-14T10:38:37;27.40;47.30
27647;DHT22;42229;51.230;6.240;2023-06-14T10:41:04;27.50;47.20
27647;DHT22;42229;51.230;6.240;2023-06-14T10:43:31;27.50;47.20
27647;DHT22;42229;51.230;6.240;2023-06-14T10:46:17;27.60;47.20
27647;DHT22;42229;51.230;6.240;2023-06-14T10:48:44;27.60;47.00
27647;DHT22;42229;51.230;6.240;2023-06-14T10:51:17;27.70;46.90
27647;DHT22;42229;51.230;6.240;2023-06-14T10:53:47;27.70;47.10
27647;DHT22;42229;51.230;6.240;2023-06-14T10:56:26;27.70;46.80
27647;DHT22;42229;51.230;6.240;2023-06-14T10:58:58;27.80;46.90
27647;DHT22;42229;51.230;6.240;2023-06-14T11:01:37;27.80;47.20
27647;DHT22;42229;51.230;6.240;2023-06-14T11:04:08;27.90;47.30
27647;DHT22;42229;51.230;6.240;2023-06-14T11:06:45;27.90;47.30
27647;DHT22;42229;51.230;6.240;2023-06-14T11:11:47;28.10;46.90
27647;DHT22;42229;51.230;6.240;2023-06-14T11:14:14;28.20;46.80
27647;DHT22;42229;51.230;6.240;2023-06-14T11:16:40;28.20;46.50
27647;DHT22;42229;51.230;6.240;2023-06-14T11:19:06;28.20;46.40
27647;DHT22;42229;51.230;6.240;2023-06-14T11:21:33;28.30;46.60
27647;DHT22;42229;51.230;6.240;2023-06-14T11:23:59;28.30;46.60
27647;DHT22;42229;51.230;6.240;2023-06-14T11:28:56;28.40;46.40
27647;DHT22;42229;51.230;6.240;2023-06-14T11:31:23;28.50;46.50
27647;DHT22;42229;51.230;6.240;2023-06-14T11:33:50;28.50;46.30
27647;DHT22;42229;51.230;6.240;2023-06-14T11:36:16;28.50;46.40
27647;DHT22;42229;51.230;6.240;2023-06-14T11:38:43;28.50;45.50
27647;DHT22;42229;51.230;6.240;2023-06-14T11:41:09;28.60;46.40
27647;DHT22;42229;51.230;6.240;2023-06-14T11:43:36;28.70;47.10
27647;DHT22;42229;51.230;6.240;2023-06-14T11:46:03;28.70;47.10
27647;DHT22;42229;51.230;6.240;2023-06-14T11:49:03;28.80;45.70
27647;DHT22;42229;51.230;6.240;2023-06-14T11:51:22;28.90;46.90
27647;DHT22;42229;51.230;6.240;2023-06-14T11:53:48;29.00;46.20
27647;DHT22;42229;51.230;6.240;2023-06-14T11:56:14;29.10;46.30
27647;DHT22;42229;51.230;6.240;2023-06-14T11:58:42;29.20;46.00
27647;DHT22;42229;51.230;6.240;2023-06-14T12:01:09;29.30;46.30
27647;DHT22;42229;51.230;6.240;2023-06-14T12:03:35;29.60;45.70
27647;DHT22;42229;51.230;6.240;2023-06-14T12:06:05;29.70;46.10
27647;DHT22;42229;51.230;6.240;2023-06-14T12:08:35;30.00;45.70
27647;DHT22;42229;51.230;6.240;2023-06-14T12:11:11;30.20;45.90
27647;DHT22;42229;51.230;6.240;2023-06-14T12:13:39;30.50;46.00
27647;DHT22;42229;51.230;6.240;2023-06-14T12:16:09;30.80;46.20
27647;DHT22;42229;51.230;6.240;2023-06-14T12:18:37;31.10;46.20
27647;DHT22;42229;51.230;6.240;2023-06-14T12:21:05;31.40;43.50
27647;DHT22;42229;51.230;6.240;2023-06-14T12:23:45;31.70;44.80
27647;DHT22;42229;51.230;6.240;2023-06-14T12:26:16;32.00;45.90
27647;DHT22;42229;51.230;6.240;2023-06-14T12:28:47;32.30;45.80
27647;DHT22;42229;51.230;6.240;2023-06-14T12:31:14;32.50;44.30
27647;DHT22;42229;51.230;6.240;2023-06-14T12:33:42;32.80;44.30
27647;DHT22;42229;51.230;6.240;2023-06-14T12:36:09;33.10;44.50
27647;DHT22;42229;51.230;6.240;2023-06-14T12:38:36;33.30;44.70
27647;DHT22;42229;51.230;6.240;2023-06-14T12:41:03;33.50;44.20
27647;DHT22;42229;51.230;6.240;2023-06-14T12:43:29;33.70;45.40
27647;DHT22;42229;51.230;6.240;2023-06-14T12:45:55;34.00;44.90
27647;DHT22;42229;51.230;6.240;2023-06-14T12:48:22;34.30;44.20
27647;DHT22;42229;51.230;6.240;2023-06-14T12:50:48;34.60;44.40
27647;DHT22;42229;51.230;6.240;2023-06-14T12:53:14;34.80;44.10
27647;DHT22;42229;51.230;6.240;2023-06-14T12:55:41;35.00;44.60
27647;DHT22;42229;51.230;6.240;2023-06-14T12:58:07;35.10;44.30
27647;DHT22;42229;51.230;6.240;2023-06-14T13:00:33;35.30;44.50
27647;DHT22;42229;51.230;6.240;2023-06-14T13:02:59;35.40;43.90
27647;DHT22;42229;51.230;6.240;2023-06-14T13:05:26;35.50;42.20
27647;DHT22;42229;51.230;6.240;2023-06-14T13:07:52;35.70;42.00
27647;DHT22;42229;51.230;6.240;2023-06-14T13:10:18;35.80;43.20
27647;DHT22;42229;51.230;6.240;2023-06-14T13:12:44;35.80;43.70
27647;DHT22;42229;51.230;6.240;2023-06-14T13:15:11;35.90;42.30
27647;DHT22;42229;51.230;6.240;2023-06-14T13:17:37;35.90;42.30
27647;DHT22;42229;51.230;6.240;2023-06-14T13:20:05;36.00;42.70
27647;DHT22;42229;51.230;6.240;2023-06-14T13:22:33;36.10;43.20
27647;DHT22;42229;51.230;6.240;2023-06-14T13:24:59;36.00;43.00
27647;DHT22;42229;51.230;6.240;2023-06-14T13:27:26;36.00;42.40
27647;DHT22;42229;51.230;6.240;2023-06-14T13:29:53;36.00;42.80
27647;DHT22;42229;51.230;6.240;2023-06-14T13:32:20;36.00;42.70
27647;DHT22;42229;51.230;6.240;2023-06-14T13:34:47;36.00;42.90
27647;DHT22;42229;51.230;6.240;2023-06-14T13:37:13;36.00;41.80
27647;DHT22;42229;51.230;6.240;2023-06-14T13:39:40;36.00;41.10
27647;DHT22;42229;51.230;6.240;2023-06-14T13:42:06;36.00;42.70
27647;DHT22;42229;51.230;6.240;2023-06-14T13:44:33;36.00;42.30
27647;DHT22;42229;51.230;6.240;2023-06-14T13:46:59;36.00;42.50
27647;DHT22;42229;51.230;6.240;2023-06-14T13:49:25;36.00;42.40
27647;DHT22;42229;51.230;6.240;2023-06-14T13:51:52;36.00;41.40
27647;DHT22;42229;51.230;6.240;2023-06-14T13:54:21;36.00;41.00
27647;DHT22;42229;51.230;6.240;2023-06-14T13:56:47;35.90;40.10
27647;DHT22;42229;51.230;6.240;2023-06-14T13:59:14;35.90;41.70
27647;DHT22;42229;51.230;6.240;2023-06-14T14:01:40;35.80;41.70
27647;DHT22;42229;51.230;6.240;2023-06-14T14:04:06;35.80;41.70
27647;DHT22;42229;51.230;6.240;2023-06-14T14:06:32;35.70;41.50
27647;DHT22;42229;51.230;6.240;2023-06-14T14:08:58;35.60;42.00
27647;DHT22;42229;51.230;6.240;2023-06-14T14:11:25;35.60;41.80
27647;DHT22;42229;51.230;6.240;2023-06-14T14:13:51;35.70;41.90
27647;DHT22;42229;51.230;6.240;2023-06-14T14:16:17;35.70;42.40
27647;DHT22;42229;51.230;6.240;2023-06-14T14:18:45;35.80;41.90
27647;DHT22;42229;51.230;6.240;2023-06-14T14:21:11;35.90;42.00
27647;DHT22;42229;51.230;6.240;2023-06-14T14:23:38;36.00;41.80
27647;DHT22;42229;51.230;6.240;2023-06-14T14:26:04;36.20;41.50
27647;DHT22;42229;51.230;6.240;2023-06-14T14:28:30;36.30;41.60
27647;DHT22;42229;51.230;6.240;2023-06-14T14:30:58;36.40;39.40
27647;DHT22;42229;51.230;6.240;2023-06-14T14:33:25;36.60;41.00
27647;DHT22;42229;51.230;6.240;2023-06-14T14:35:51;36.80;41.90
27647;DHT22;42229;51.230;6.240;2023-06-14T14:38:17;36.90;41.80
27647;DHT22;42229;51.230;6.240;2023-06-14T14:40:44;37.10;41.50
27647;DHT22;42229;51.230;6.240;2023-06-14T14:43:10;37.20;41.90
27647;DHT22;42229;51.230;6.240;2023-06-14T14:45:37;37.20;41.50
27647;DHT22;42229;51.230;6.240;2023-06-14T14:48:03;37.40;41.80
27647;DHT22;42229;51.230;6.240;2023-06-14T14:50:29;37.50;41.90
27647;DHT22;42229;51.230;6.240;2023-06-14T14:52:55;37.50;41.60
27647;DHT22;42229;51.230;6.240;2023-06-14T14:55:22;37.70;41.40
27647;DHT22;42229;51.230;6.240;2023-06-14T14:57:48;37.80;41.50
27647;DHT22;42229;51.230;6.240;2023-06-14T15:00:14;37.90;41.30
27647;DHT22;42229;51.230;6.240;2023-06-14T15:02:41;38.00;41.40
27647;DHT22;42229;51.230;6.240;2023-06-14T15:05:07;38.10;40.70
27647;DHT22;42229;51.230;6.240;2023-06-14T15:07:33;38.10;41.60
27647;DHT22;42229;51.230;6.240;2023-06-14T15:10:00;38.20;41.50
27647;DHT22;42229;51.230;6.240;2023-06-14T15:12:26;38.40;41.40
27647;DHT22;42229;51.230;6.240;2023-06-14T15:14:53;38.50;41.40
27647;DHT22;42229;51.230;6.240;2023-06-14T15:17:19;38.60;41.30
27647;DHT22;42229;51.230;6.240;2023-06-14T15:19:46;38.60;41.00
27647;DHT22;42229;51.230;6.240;2023-06-14T15:22:13;38.60;41.00
27647;DHT22;42229;51.230;6.240;2023-06-14T15:24:43;38.70;40.40
27647;DHT22;42229;51.230;6.240;2023-06-14T15:27:09;38.80;41.10
27647;DHT22;42229;51.230;6.240;2023-06-14T15:29:38;38.80;40.60
27647;DHT22;42229;51.230;6.240;2023-06-14T15:32:05;38.80;40.10
27647;DHT22;42229;51.230;6.240;2023-06-14T15:34:32;38.90;40.60
27647;DHT22;42229;51.230;6.240;2023-06-14T15:36:58;38.90;40.30
27647;DHT22;42229;51.230;6.240;2023-06-14T15:39:25;38.90;39.20
27647;DHT22;42229;51.230;6.240;2023-06-14T15:41:52;38.90;40.00